Terminal Aerodrome Forecast
Issued by NWS

Home | Current Version | Previous Version | Graphics & Text | Print | Product List | Glossary On
Versions: 1 2 3 4 5 6 7 8 9 10 11 12 13 14 15
000
FTUS45 KGGW 201723
TAFSDY
TAF
KSDY 201723Z 2018/2118 30025G35KT P6SM SCT120
     FM202200 32015G26KT P6SM SCT070
     FM211000 33011KT P6SM FEW250=

USA.gov is the U.S. government's official web portal to all federal, state and local government web resources and services.